createdAt,value
2019-01-05T00:01:17.940Z,32.20
2019-01-05T00:04:15.657Z,27.40
2019-01-05T00:06:59.881Z,29.70
2019-01-05T00:10:05.039Z,28.00
2019-01-05T00:12:52.780Z,36.88
2019-01-05T00:15:58.571Z,31.35
2019-01-05T00:18:46.488Z,30.13
2019-01-05T00:21:34.685Z,35.17
2019-01-05T00:24:22.556Z,30.75
2019-01-05T00:27:10.636Z,44.30
2019-01-05T00:30:10.153Z,31.05
2019-01-05T00:33:15.036Z,31.50
2019-01-05T00:36:32.041Z,37.10
2019-01-05T00:39:22.415Z,26.90
2019-01-05T00:42:14.136Z,36.80
2019-01-05T00:45:04.195Z,40.80
2019-01-05T00:47:56.132Z,37.10
2019-01-05T00:50:47.835Z,40.13
2019-01-05T00:53:36.497Z,33.48
2019-01-05T00:56:25.751Z,37.57
2019-01-05T00:59:14.309Z,36.42
2019-01-05T01:02:12.338Z,29.67
2019-01-05T01:05:00.219Z,28.47
2019-01-05T01:07:57.658Z,26.30
2019-01-05T01:10:49.773Z,29.70
2019-01-05T01:13:37.450Z,35.07
2019-01-05T01:16:38.740Z,43.60
2019-01-05T01:19:30.757Z,37.60
2019-01-05T01:22:11.819Z,43.97
2019-01-05T01:24:59.134Z,39.43
2019-01-05T01:27:48.166Z,49.33
2019-01-05T01:30:45.722Z,45.30
2019-01-05T01:33:41.716Z,41.83
2019-01-05T01:36:22.891Z,70.00
2019-01-05T01:39:17.136Z,57.27
2019-01-05T01:42:15.019Z,53.63
2019-01-05T01:45:04.431Z,46.57
2019-01-05T01:48:06.072Z,54.58
2019-01-05T01:50:55.990Z,51.70
2019-01-05T01:53:47.384Z,39.30
2019-01-05T01:56:35.699Z,48.58
2019-01-05T02:00:00.865Z,39.93
2019-01-05T02:02:57.162Z,58.00
2019-01-05T02:05:59.489Z,45.20
2019-01-05T02:08:51.735Z,34.77
2019-01-05T02:11:57.908Z,31.23
2019-01-05T02:15:06.196Z,42.13
2019-01-05T02:18:23.404Z,51.37
2019-01-05T02:21:42.995Z,44.63
2019-01-05T02:25:30.564Z,35.70
2019-01-05T02:29:34.464Z,45.17
2019-01-05T02:33:20.326Z,33.78
2019-01-05T02:36:45.054Z,36.87
2019-01-05T02:40:29.321Z,42.63
2019-01-05T02:44:45.414Z,36.43
2019-01-05T02:48:17.788Z,39.43
2019-01-05T02:51:53.701Z,41.40
2019-01-05T02:55:29.206Z,32.90
2019-01-05T02:59:25.240Z,35.73
2019-01-05T03:02:57.913Z,28.67
2019-01-05T03:06:33.368Z,40.13
2019-01-05T03:10:16.835Z,31.43
2019-01-05T03:14:31.437Z,39.57
2019-01-05T03:18:25.280Z,27.10
2019-01-05T03:22:15.012Z,34.33
2019-01-05T03:25:54.297Z,35.07
2019-01-05T03:29:50.977Z,18.98
2019-01-05T03:33:35.277Z,37.30
2019-01-05T03:37:34.862Z,36.80
2019-01-05T03:41:14.202Z,34.60
2019-01-05T03:44:54.836Z,40.03
2019-01-05T03:48:32.785Z,31.10
2019-01-05T03:52:16.877Z,25.40
2019-01-05T03:56:27.584Z,36.73
2019-01-05T04:00:08.061Z,39.77
2019-01-05T04:03:55.062Z,41.30
2019-01-05T04:07:31.154Z,47.27
2019-01-05T04:11:19.659Z,42.07
2019-01-05T04:15:09.490Z,36.63
2019-01-05T04:19:33.253Z,44.90
2019-01-05T04:23:40.926Z,43.07
2019-01-05T04:27:46.241Z,42.47
2019-01-05T04:31:48.052Z,35.87
2019-01-05T04:35:31.701Z,56.50
2019-01-05T04:39:39.744Z,31.97
2019-01-05T04:43:33.928Z,34.53
2019-01-05T04:47:14.742Z,44.00
2019-01-05T04:50:43.864Z,39.23
2019-01-05T04:54:12.365Z,43.33
2019-01-05T04:58:08.710Z,47.70
2019-01-05T05:02:16.014Z,35.63
2019-01-05T05:05:52.204Z,51.13
2019-01-05T05:09:34.676Z,45.67
2019-01-05T05:13:20.316Z,37.30
2019-01-05T05:17:32.720Z,35.08
2019-01-05T05:21:32.530Z,27.93
2019-01-05T05:24:56.580Z,39.50
2019-01-05T05:28:51.098Z,33.70
2019-01-05T05:32:54.415Z,33.37
2019-01-05T05:36:44.186Z,42.10
2019-01-05T05:40:59.361Z,52.20
2019-01-05T05:44:37.633Z,50.30
2019-01-05T05:48:41.586Z,34.27
2019-01-05T05:52:50.336Z,37.70
2019-01-05T05:56:19.652Z,32.42
2019-01-05T05:59:59.488Z,38.87
2019-01-05T06:03:41.805Z,59.03
2019-01-05T06:07:50.770Z,38.70
2019-01-05T06:11:58.275Z,49.30
2019-01-05T06:15:47.038Z,54.35
2019-01-05T06:19:28.311Z,50.73
2019-01-05T06:23:36.818Z,57.73
2019-01-05T06:27:33.491Z,49.90
2019-01-05T06:31:47.923Z,46.23
2019-01-05T06:35:30.950Z,57.05
2019-01-05T06:39:12.184Z,49.60
2019-01-05T06:42:40.357Z,56.27
2019-01-05T06:46:19.036Z,41.13
2019-01-05T06:50:28.307Z,38.03
2019-01-05T06:54:44.179Z,48.63
2019-01-05T06:58:33.462Z,49.98
2019-01-05T07:02:01.628Z,51.03
2019-01-05T07:05:29.456Z,34.03
2019-01-05T07:09:23.683Z,59.00
2019-01-05T07:13:25.794Z,45.58
2019-01-05T07:17:21.008Z,60.20
2019-01-05T07:21:08.673Z,35.77
2019-01-05T07:24:57.945Z,37.20
2019-01-05T07:29:08.600Z,35.97
2019-01-05T07:32:59.207Z,46.88
2019-01-05T07:36:45.815Z,36.83
2019-01-05T07:40:46.384Z,42.00
2019-01-05T07:45:08.539Z,32.37
2019-01-05T07:49:05.484Z,22.80
2019-01-05T07:52:46.716Z,33.93
2019-01-05T07:56:49.768Z,42.25
2019-01-05T08:00:19.708Z,40.00
2019-01-05T08:04:04.621Z,39.07
2019-01-05T08:07:57.666Z,32.00
2019-01-05T08:12:00.857Z,30.43
2019-01-05T08:16:15.544Z,25.10
2019-01-05T08:20:39.989Z,17.37
2019-01-05T08:24:37.223Z,37.40
2019-01-05T08:28:35.080Z,29.20
2019-01-05T08:32:31.685Z,25.45
2019-01-05T08:36:30.121Z,32.10
2019-01-05T08:40:28.257Z,24.82
2019-01-05T08:44:18.888Z,21.00
2019-01-05T08:48:17.985Z,25.60
2019-01-05T08:52:04.424Z,24.03
2019-01-05T08:55:45.923Z,32.27
2019-01-05T08:59:18.711Z,21.90
2019-01-05T09:03:17.043Z,20.90
2019-01-05T09:07:06.462Z,19.63
2019-01-05T09:10:56.805Z,25.27
2019-01-05T09:14:45.423Z,14.43
2019-01-05T09:18:37.523Z,22.37
2019-01-05T09:22:13.921Z,24.83
2019-01-05T09:25:44.397Z,21.83
2019-01-05T09:29:32.052Z,23.23
2019-01-05T09:33:14.144Z,21.10
2019-01-05T09:36:54.258Z,12.87
2019-01-05T09:41:10.212Z,29.10
2019-01-05T09:44:45.087Z,23.30
2019-01-05T09:48:31.631Z,31.43
2019-01-05T09:52:08.996Z,33.45
2019-01-05T09:55:50.004Z,22.20
2019-01-05T09:59:33.829Z,29.18
2019-01-05T10:03:40.226Z,27.70
2019-01-05T10:07:17.131Z,20.47
2019-01-05T10:11:14.806Z,21.40
2019-01-05T10:15:14.518Z,22.63
2019-01-05T10:19:18.944Z,14.27
2019-01-05T10:23:27.171Z,15.27
2019-01-05T10:27:09.385Z,14.00
2019-01-05T10:30:49.867Z,15.83
2019-01-05T10:34:38.890Z,17.17
2019-01-05T10:38:44.254Z,10.63
2019-01-05T10:42:46.162Z,11.83
2019-01-05T10:46:50.558Z,10.53
2019-01-05T10:50:37.644Z,7.33
2019-01-05T10:54:33.748Z,12.27
2019-01-05T10:58:16.192Z,7.63
2019-01-05T11:02:18.914Z,7.13
2019-01-05T11:06:41.282Z,7.50
2019-01-05T11:10:36.796Z,8.50
2019-01-05T11:14:19.689Z,6.53
2019-01-05T11:18:06.174Z,6.43
2019-01-05T11:22:16.666Z,6.43
2019-01-05T11:26:21.100Z,6.47
2019-01-05T11:30:24.425Z,7.03
2019-01-05T11:33:59.196Z,11.12
2019-01-05T11:37:29.512Z,8.10
2019-01-05T11:41:17.993Z,3.50
2019-01-05T11:45:09.006Z,4.53
2019-01-05T11:48:38.391Z,5.00
2019-01-05T11:52:32.718Z,14.33
2019-01-05T11:56:22.976Z,5.26
2019-01-05T12:00:23.849Z,9.27
2019-01-05T12:04:41.790Z,3.50
2019-01-05T12:08:50.735Z,7.40
2019-01-05T12:12:52.228Z,5.23
2019-01-05T12:16:43.179Z,3.83
2019-01-05T12:20:43.752Z,6.20
2019-01-05T12:24:22.386Z,3.70
2019-01-05T12:27:58.141Z,4.87
2019-01-05T12:31:41.056Z,2.92
2019-01-05T12:35:22.766Z,8.90
2019-01-05T12:39:22.958Z,6.87
2019-01-05T12:43:02.045Z,4.80
2019-01-05T12:47:03.074Z,5.10
2019-01-05T12:51:12.609Z,7.40
2019-01-05T12:55:17.923Z,6.70
2019-01-05T12:59:19.767Z,6.70
2019-01-05T13:03:03.954Z,5.83
2019-01-05T13:07:15.936Z,6.83
2019-01-05T13:11:10.433Z,7.83
2019-01-05T13:15:10.747Z,6.30
2019-01-05T13:18:58.692Z,5.17
